createdAt,value
2017-07-09T00:00:44.409Z,4.90
2017-07-09T00:03:14.004Z,5.23
2017-07-09T00:05:43.753Z,5.33
2017-07-09T00:08:13.236Z,8.60
2017-07-09T00:10:42.485Z,5.23
2017-07-09T00:13:11.791Z,6.77
2017-07-09T00:15:41.202Z,8.30
2017-07-09T00:18:10.736Z,4.67
2017-07-09T00:20:40.048Z,8.30
2017-07-09T00:23:09.193Z,5.00
2017-07-09T00:25:39.437Z,7.13
2017-07-09T00:28:08.744Z,5.40
2017-07-09T00:30:38.177Z,10.00
2017-07-09T00:33:07.641Z,5.63
2017-07-09T00:35:36.855Z,4.10
2017-07-09T00:38:06.212Z,4.33
2017-07-09T00:40:35.218Z,4.60
2017-07-09T00:43:05.249Z,5.93
2017-07-09T00:45:34.715Z,4.40
2017-07-09T00:48:04.118Z,4.87
2017-07-09T00:50:36.238Z,4.13
2017-07-09T00:53:05.638Z,6.00
2017-07-09T00:55:34.856Z,7.90
2017-07-09T00:58:04.411Z,4.90
2017-07-09T01:00:34.077Z,4.60
2017-07-09T01:03:04.172Z,4.70
2017-07-09T01:05:33.448Z,4.47
2017-07-09T01:08:03.714Z,4.93
2017-07-09T01:10:32.873Z,5.13
2017-07-09T01:13:02.595Z,4.73
2017-07-09T01:15:31.659Z,5.13
2017-07-09T01:18:00.839Z,8.20
2017-07-09T01:20:30.009Z,4.90
2017-07-09T01:22:59.676Z,6.90
2017-07-09T01:25:28.839Z,5.20
2017-07-09T01:27:58.154Z,5.20
2017-07-09T01:30:27.571Z,4.90
2017-07-09T01:32:56.780Z,4.30
2017-07-09T01:35:25.927Z,9.27
2017-07-09T01:37:56.664Z,5.30
2017-07-09T01:40:26.089Z,5.57
2017-07-09T01:42:55.195Z,6.23
2017-07-09T01:45:24.507Z,5.20
2017-07-09T01:47:53.775Z,6.80
2017-07-09T01:50:23.214Z,5.23
2017-07-09T01:52:52.829Z,5.10
2017-07-09T01:55:22.277Z,6.83
2017-07-09T01:57:51.325Z,5.33
2017-07-09T02:00:20.774Z,5.10
2017-07-09T02:02:50.304Z,5.63
2017-07-09T02:05:20.502Z,5.00
2017-07-09T02:07:50.268Z,7.40
2017-07-09T02:10:20.440Z,6.10
2017-07-09T02:12:49.935Z,5.17
2017-07-09T02:15:26.578Z,5.07
2017-07-09T02:17:56.013Z,5.30
2017-07-09T02:20:25.240Z,6.63
2017-07-09T02:22:54.671Z,6.57
2017-07-09T02:25:24.833Z,4.90
2017-07-09T02:27:54.120Z,7.20
2017-07-09T02:30:23.630Z,6.97
2017-07-09T02:32:52.850Z,5.77
2017-07-09T02:35:22.375Z,8.33
2017-07-09T02:37:52.758Z,5.30
2017-07-09T02:40:22.327Z,5.87
2017-07-09T02:42:51.037Z,5.07
2017-07-09T02:45:20.138Z,5.43
2017-07-09T02:47:49.383Z,4.67
2017-07-09T02:50:19.001Z,5.70
2017-07-09T02:52:48.255Z,5.67
2017-07-09T02:55:17.544Z,5.27
2017-07-09T02:57:46.722Z,4.80
2017-07-09T03:00:15.589Z,5.47
2017-07-09T03:02:44.319Z,5.10
2017-07-09T03:05:14.209Z,5.60
2017-07-09T03:07:44.267Z,7.40
2017-07-09T03:10:13.396Z,9.37
2017-07-09T03:12:42.724Z,5.20
2017-07-09T03:15:11.895Z,6.70
2017-07-09T03:17:40.909Z,5.17
2017-07-09T03:20:10.090Z,5.53
2017-07-09T03:22:39.432Z,5.40
2017-07-09T03:25:08.799Z,5.83
2017-07-09T03:27:37.988Z,5.93
2017-07-09T03:30:07.355Z,5.20
2017-07-09T03:32:36.545Z,5.77
2017-07-09T03:35:05.321Z,5.13
2017-07-09T03:37:34.518Z,7.00
2017-07-09T03:40:03.183Z,5.63
2017-07-09T03:42:32.101Z,5.67
2017-07-09T03:45:01.764Z,6.50
2017-07-09T03:47:31.441Z,6.13
2017-07-09T03:50:00.744Z,5.33
2017-07-09T03:52:31.169Z,7.80
2017-07-09T03:55:00.550Z,6.07
2017-07-09T03:57:29.746Z,7.13
2017-07-09T03:59:58.867Z,5.43
2017-07-09T04:02:27.541Z,6.63
2017-07-09T04:04:56.440Z,5.83
2017-07-09T04:07:26.003Z,5.47
2017-07-09T04:09:56.129Z,5.13
2017-07-09T04:12:26.331Z,6.67
2017-07-09T04:15:02.571Z,5.80
2017-07-09T04:17:31.678Z,5.40
2017-07-09T04:20:00.994Z,5.07
2017-07-09T04:22:30.272Z,7.63
2017-07-09T04:24:59.059Z,6.27
2017-07-09T04:30:02.403Z,5.60
2017-07-09T04:32:31.576Z,4.90
2017-07-09T04:35:00.910Z,4.50
2017-07-09T04:37:30.146Z,6.17
2017-07-09T04:39:59.488Z,6.90
2017-07-09T04:42:29.815Z,5.90
2017-07-09T04:44:59.370Z,5.23
2017-07-09T04:47:28.801Z,6.20
2017-07-09T04:49:58.091Z,4.80
2017-07-09T04:52:27.269Z,5.03
2017-07-09T04:54:56.478Z,5.00
2017-07-09T04:57:25.790Z,5.70
2017-07-09T04:59:55.056Z,7.33
2017-07-09T05:02:24.319Z,4.97
2017-07-09T05:04:53.499Z,6.23
2017-07-09T05:07:23.042Z,5.30
2017-07-09T05:09:52.224Z,5.50
2017-07-09T05:12:22.492Z,5.17
2017-07-09T05:14:54.295Z,6.40
2017-07-09T05:17:23.633Z,8.10
2017-07-09T05:19:52.885Z,5.57
2017-07-09T05:22:22.405Z,9.63
2017-07-09T05:24:51.782Z,5.60
2017-07-09T05:27:20.957Z,5.27
2017-07-09T05:29:50.166Z,5.20
2017-07-09T05:32:19.620Z,5.70
2017-07-09T05:34:49.254Z,5.80
2017-07-09T05:37:18.406Z,6.83
2017-07-09T05:39:47.744Z,5.67
2017-07-09T05:42:16.923Z,7.00
2017-07-09T05:44:46.133Z,6.20
2017-07-09T05:47:16.240Z,6.77
2017-07-09T05:49:45.316Z,5.63
2017-07-09T05:52:14.542Z,5.33
2017-07-09T05:54:43.612Z,5.47
2017-07-09T05:57:12.819Z,5.30
2017-07-09T05:59:42.129Z,5.47
2017-07-09T06:02:11.491Z,5.10
2017-07-09T06:04:40.888Z,5.37
2017-07-09T06:07:10.003Z,8.10
2017-07-09T06:09:40.749Z,5.70
2017-07-09T06:12:10.082Z,5.27
2017-07-09T06:14:41.308Z,7.23
2017-07-09T06:17:10.661Z,5.20
2017-07-09T06:19:39.889Z,6.50
2017-07-09T06:22:08.998Z,5.40
2017-07-09T06:24:38.489Z,5.17
2017-07-09T06:27:08.102Z,4.60
2017-07-09T06:29:37.500Z,5.30
2017-07-09T06:32:06.757Z,5.67
2017-07-09T06:34:36.072Z,7.00
2017-07-09T06:37:05.334Z,4.77
2017-07-09T06:39:34.664Z,5.37
2017-07-09T06:42:03.895Z,5.43
2017-07-09T06:44:33.002Z,4.80
2017-07-09T06:47:02.497Z,5.40
2017-07-09T06:49:32.336Z,5.67
2017-07-09T06:52:01.343Z,5.60
2017-07-09T06:54:30.609Z,5.03
2017-07-09T06:56:59.889Z,4.60
2017-07-09T06:59:28.980Z,5.10
2017-07-09T07:01:58.092Z,5.30
2017-07-09T07:04:27.753Z,7.47
2017-07-09T07:06:57.992Z,5.70
2017-07-09T07:09:28.135Z,4.73
2017-07-09T07:11:57.491Z,3.90
2017-07-09T07:14:27.580Z,5.73
2017-07-09T07:16:57.775Z,4.43
2017-07-09T07:19:26.577Z,5.73
2017-07-09T07:21:55.317Z,4.40
2017-07-09T07:24:24.025Z,5.70
2017-07-09T07:26:53.324Z,4.20
2017-07-09T07:29:22.819Z,4.23
2017-07-09T07:31:52.227Z,4.77
2017-07-09T07:34:21.405Z,4.80
2017-07-09T07:36:50.943Z,5.90
2017-07-09T07:39:20.493Z,4.40
2017-07-09T07:41:49.547Z,6.53
2017-07-09T07:44:19.038Z,4.63
2017-07-09T07:46:48.253Z,4.47
2017-07-09T07:49:17.574Z,5.90
2017-07-09T07:51:46.759Z,5.77
2017-07-09T07:54:16.139Z,4.30
2017-07-09T07:56:45.410Z,4.70
2017-07-09T07:59:14.879Z,4.33
2017-07-09T08:01:44.153Z,3.40
2017-07-09T08:04:13.248Z,3.30
2017-07-09T08:06:42.768Z,4.40
2017-07-09T08:09:11.841Z,4.30
2017-07-09T08:11:41.069Z,4.03
2017-07-09T08:14:10.474Z,5.30
2017-07-09T08:16:39.924Z,4.00
2017-07-09T08:19:10.755Z,5.57
2017-07-09T08:21:40.023Z,4.50
2017-07-09T08:24:09.421Z,3.93
2017-07-09T08:26:38.708Z,5.93
2017-07-09T08:29:08.067Z,4.37
2017-07-09T08:31:37.661Z,5.93
2017-07-09T08:34:07.105Z,5.00
2017-07-09T08:36:36.564Z,4.20
2017-07-09T08:39:05.947Z,3.30
2017-07-09T08:41:35.127Z,4.40
2017-07-09T08:44:04.193Z,4.03
2017-07-09T08:46:33.776Z,6.30
2017-07-09T08:49:03.078Z,3.57
2017-07-09T08:51:32.245Z,3.00
2017-07-09T08:54:01.587Z,3.63
2017-07-09T08:56:31.836Z,3.83
2017-07-09T08:59:00.946Z,3.20
2017-07-09T09:01:30.322Z,3.57
2017-07-09T09:03:59.700Z,3.60
2017-07-09T09:06:28.970Z,3.60
2017-07-09T09:08:58.362Z,4.93
2017-07-09T09:11:27.460Z,6.10
2017-07-09T09:13:56.875Z,3.10
2017-07-09T09:16:26.152Z,3.20
2017-07-09T09:18:55.383Z,3.00
2017-07-09T09:21:25.659Z,3.53
2017-07-09T09:23:54.952Z,2.50
2017-07-09T09:26:24.312Z,3.10
2017-07-09T09:28:53.731Z,4.93
2017-07-09T09:31:22.991Z,2.97
2017-07-09T09:33:52.331Z,3.40
2017-07-09T09:36:21.668Z,3.53
2017-07-09T09:38:51.269Z,2.50
2017-07-09T09:41:20.594Z,2.40
2017-07-09T09:43:49.883Z,2.33
2017-07-09T09:46:19.016Z,3.30
2017-07-09T09:48:48.334Z,2.30
2017-07-09T09:51:17.608Z,3.80
2017-07-09T09:53:47.067Z,2.70
2017-07-09T09:56:16.360Z,2.20
2017-07-09T09:58:45.570Z,2.70
2017-07-09T10:01:14.697Z,3.93
2017-07-09T10:03:43.944Z,2.70
2017-07-09T10:06:13.127Z,3.50
2017-07-09T10:08:42.352Z,2.77
2017-07-09T10:11:11.648Z,2.33
2017-07-09T10:13:40.702Z,2.80
2017-07-09T10:16:10.146Z,2.67
2017-07-09T10:18:39.239Z,3.33
2017-07-09T10:21:08.483Z,2.60
2017-07-09T10:23:39.111Z,3.60
2017-07-09T10:26:08.498Z,2.47
2017-07-09T10:28:37.563Z,3.20
2017-07-09T10:31:06.771Z,3.10
2017-07-09T10:33:36.094Z,4.00
2017-07-09T10:36:05.357Z,3.90
2017-07-09T10:38:34.712Z,5.03
2017-07-09T10:41:03.951Z,4.83
2017-07-09T10:43:33.050Z,2.93
2017-07-09T10:46:02.184Z,3.47
2017-07-09T10:48:31.214Z,3.47
2017-07-09T10:51:00.610Z,4.97
2017-07-09T10:53:29.912Z,2.73
2017-07-09T10:55:59.423Z,3.53
2017-07-09T10:58:28.823Z,2.40
2017-07-09T11:01:05.482Z,4.50
2017-07-09T11:03:34.658Z,5.80
2017-07-09T11:06:03.879Z,2.80
2017-07-09T11:08:33.372Z,5.87
2017-07-09T11:11:02.757Z,3.10
2017-07-09T11:13:32.051Z,2.83
2017-07-09T11:16:01.397Z,3.53
2017-07-09T11:18:30.844Z,3.83
2017-07-09T11:21:00.710Z,4.70
2017-07-09T11:23:30.143Z,5.30
2017-07-09T11:26:00.440Z,3.33
2017-07-09T11:28:29.638Z,4.00
2017-07-09T11:30:58.918Z,3.23
2017-07-09T11:33:28.349Z,2.83
2017-07-09T11:35:57.802Z,5.53
2017-07-09T11:38:27.856Z,4.03
2017-07-09T11:40:56.959Z,3.17
2017-07-09T11:43:26.330Z,3.60
2017-07-09T11:45:55.653Z,4.93
2017-07-09T11:48:24.819Z,3.20
2017-07-09T11:50:54.338Z,3.30
2017-07-09T11:53:23.939Z,3.63
2017-07-09T11:55:53.367Z,3.30
2017-07-09T11:58:22.853Z,3.43
2017-07-09T12:00:52.376Z,3.13
2017-07-09T12:03:21.620Z,3.50
2017-07-09T12:05:50.742Z,3.20
2017-07-09T12:08:20.060Z,4.90
2017-07-09T12:10:49.177Z,3.10
2017-07-09T12:13:19.427Z,7.63
2017-07-09T12:15:48.674Z,2.63
2017-07-09T12:18:18.230Z,2.87
2017-07-09T12:20:47.761Z,2.80
2017-07-09T12:23:17.062Z,3.17
2017-07-09T12:25:46.239Z,4.90
2017-07-09T12:28:15.971Z,2.70
2017-07-09T12:30:45.078Z,3.90
2017-07-09T12:33:14.297Z,5.10
2017-07-09T12:35:43.873Z,3.80
2017-07-09T12:38:13.203Z,2.70
2017-07-09T12:40:42.535Z,2.97
2017-07-09T12:43:11.857Z,3.40
2017-07-09T12:45:41.032Z,3.60
2017-07-09T12:48:10.679Z,3.70
2017-07-09T12:50:39.966Z,5.40
2017-07-09T12:53:08.984Z,2.93
2017-07-09T12:55:38.314Z,5.13
2017-07-09T12:58:07.713Z,3.70
2017-07-09T13:00:36.952Z,3.10
2017-07-09T13:03:06.307Z,2.97
2017-07-09T13:05:35.537Z,3.70
2017-07-09T13:08:04.882Z,3.93
2017-07-09T13:10:33.967Z,5.93
2017-07-09T13:13:03.286Z,3.97
2017-07-09T13:15:33.614Z,3.70
2017-07-09T13:18:03.076Z,2.87
2017-07-09T13:20:32.495Z,3.80
2017-07-09T13:23:01.526Z,3.73
2017-07-09T13:25:30.651Z,3.33
2017-07-09T13:27:59.959Z,4.63
2017-07-09T13:30:30.171Z,3.20
2017-07-09T13:32:59.346Z,4.37
2017-07-09T13:35:28.794Z,3.00
2017-07-09T13:37:58.086Z,4.63
2017-07-09T13:40:27.194Z,3.47
2017-07-09T13:42:56.213Z,3.13
2017-07-09T13:45:25.705Z,3.83
2017-07-09T13:47:54.968Z,2.50
2017-07-09T13:50:24.174Z,3.53
2017-07-09T13:52:53.598Z,3.33
2017-07-09T13:55:23.103Z,3.53
2017-07-09T13:57:52.374Z,3.23
2017-07-09T14:00:22.017Z,3.07
2017-07-09T14:02:51.333Z,5.73
2017-07-09T14:05:20.678Z,3.77
2017-07-09T14:07:49.968Z,3.33
2017-07-09T14:10:19.531Z,3.90
2017-07-09T14:12:48.981Z,3.20
2017-07-09T14:15:18.429Z,3.80
2017-07-09T14:17:47.784Z,3.17
2017-07-09T14:20:17.097Z,2.40
2017-07-09T14:22:46.578Z,2.20
2017-07-09T14:25:15.973Z,2.47
2017-07-09T14:27:45.586Z,3.07
2017-07-09T14:30:14.795Z,2.80
2017-07-09T14:32:44.932Z,2.80
2017-07-09T14:35:14.515Z,2.90
2017-07-09T14:37:43.682Z,3.30
2017-07-09T14:40:13.006Z,2.77
2017-07-09T14:42:42.446Z,3.00
2017-07-09T14:45:11.830Z,3.00
2017-07-09T14:47:41.360Z,2.80
2017-07-09T14:50:10.604Z,2.67
2017-07-09T14:52:39.914Z,2.83
2017-07-09T14:55:10.322Z,3.20
2017-07-09T14:57:39.785Z,2.83
2017-07-09T15:00:08.975Z,3.17
2017-07-09T15:02:38.590Z,2.20
2017-07-09T15:05:07.871Z,2.30
2017-07-09T15:07:37.095Z,2.50
2017-07-09T15:10:07.103Z,2.43
2017-07-09T15:12:36.553Z,2.00
2017-07-09T15:15:05.663Z,4.73
2017-07-09T15:17:34.960Z,1.60
2017-07-09T15:20:04.083Z,2.10
2017-07-09T15:22:33.304Z,1.60
2017-07-09T15:25:02.514Z,2.73
2017-07-09T15:27:31.698Z,1.77
2017-07-09T15:30:01.172Z,1.57
2017-07-09T15:32:30.772Z,1.57
2017-07-09T15:35:00.934Z,1.73
2017-07-09T15:37:30.489Z,2.93
2017-07-09T15:39:59.542Z,1.47
2017-07-09T15:42:28.657Z,1.80
2017-07-09T15:44:57.900Z,1.50
2017-07-09T15:47:27.098Z,1.60
2017-07-09T15:49:56.588Z,1.60
2017-07-09T15:52:26.798Z,3.00
2017-07-09T15:54:56.088Z,1.87
2017-07-09T16:24:07.261Z,1.70
2017-07-09T16:26:36.480Z,2.40
2017-07-09T16:29:06.081Z,1.80
2017-07-09T16:31:35.485Z,1.63
2017-07-09T16:34:04.479Z,1.97
2017-07-09T16:36:33.684Z,2.17
2017-07-09T16:39:02.983Z,2.03
2017-07-09T16:41:32.516Z,2.67
2017-07-09T16:44:01.788Z,2.00
2017-07-09T16:46:31.991Z,2.30
2017-07-09T16:49:02.024Z,2.60
2017-07-09T16:51:31.397Z,3.67
2017-07-09T16:54:00.886Z,1.80
2017-07-09T16:56:29.919Z,1.67
2017-07-09T16:58:59.369Z,1.67
2017-07-09T17:01:29.023Z,1.60
2017-07-09T17:03:59.104Z,2.17
2017-07-09T17:06:28.395Z,2.20
2017-07-09T17:08:57.924Z,3.40
2017-07-09T17:11:27.150Z,1.90
2017-07-09T17:13:57.110Z,1.70
2017-07-09T17:16:26.673Z,1.80
2017-07-09T17:18:57.189Z,1.40
2017-07-09T17:21:26.534Z,1.40
2017-07-09T17:23:55.899Z,1.60
2017-07-09T17:26:26.144Z,3.13
2017-07-09T17:28:55.355Z,1.60
2017-07-09T17:31:24.414Z,1.63
2017-07-09T17:33:53.546Z,2.43
2017-07-09T17:36:23.041Z,3.57
2017-07-09T17:38:52.344Z,1.87
2017-07-09T17:41:21.851Z,1.70
2017-07-09T17:43:51.038Z,2.00
2017-07-09T17:46:20.241Z,2.33
2017-07-09T17:48:49.881Z,1.50
2017-07-09T17:51:19.017Z,2.50
2017-07-09T17:53:48.274Z,1.50
2017-07-09T17:56:18.907Z,1.80
2017-07-09T17:58:48.287Z,1.50
2017-07-09T18:01:17.755Z,1.87
2017-07-09T18:03:48.005Z,1.10
2017-07-09T18:06:17.115Z,1.60
2017-07-09T18:08:46.472Z,2.93
2017-07-09T18:11:15.949Z,1.40
2017-07-09T18:13:45.016Z,1.73
2017-07-09T18:16:14.485Z,2.93
2017-07-09T18:18:44.592Z,1.40
2017-07-09T18:21:13.796Z,1.47
2017-07-09T18:23:42.961Z,1.93
2017-07-09T18:26:12.335Z,1.57
2017-07-09T18:28:42.312Z,1.47
2017-07-09T18:31:11.465Z,4.93
2017-07-09T18:33:40.773Z,1.57
2017-07-09T18:36:10.012Z,1.30
2017-07-09T18:38:39.026Z,1.20
2017-07-09T18:41:08.306Z,1.30
2017-07-09T18:43:37.595Z,2.70
2017-07-09T18:46:06.842Z,1.90
2017-07-09T18:48:36.374Z,1.90
2017-07-09T18:51:05.503Z,1.70
2017-07-09T18:53:34.842Z,1.20
2017-07-09T18:56:03.978Z,1.23
2017-07-09T18:58:33.123Z,2.17
2017-07-09T19:01:02.173Z,1.10
2017-07-09T19:03:31.473Z,1.37
2017-07-09T19:06:00.836Z,0.80
2017-07-09T19:08:30.372Z,1.43
2017-07-09T19:10:59.993Z,1.10
2017-07-09T19:13:29.327Z,1.83
2017-07-09T19:15:59.684Z,1.00
2017-07-09T19:18:29.198Z,1.43
2017-07-09T19:20:58.546Z,2.33
2017-07-09T19:23:27.640Z,1.07
2017-07-09T19:25:56.963Z,1.13
2017-07-09T19:28:26.365Z,1.53
2017-07-09T19:30:57.002Z,2.00
2017-07-09T19:33:26.311Z,1.40
2017-07-09T19:35:55.809Z,1.73
2017-07-09T19:38:25.940Z,1.40
2017-07-09T19:40:54.781Z,1.90
2017-07-09T19:43:24.012Z,1.80
2017-07-09T19:45:54.194Z,1.30
2017-07-09T19:48:24.279Z,2.47
2017-07-09T19:50:54.028Z,1.60
2017-07-09T19:53:23.376Z,1.40
2017-07-09T19:55:52.588Z,1.93
2017-07-09T19:58:22.097Z,2.23
2017-07-09T20:00:51.571Z,1.60
2017-07-09T20:03:21.612Z,1.20
2017-07-09T20:05:51.056Z,5.20
2017-07-09T20:08:20.474Z,2.00
2017-07-09T20:10:50.281Z,1.60
2017-07-09T20:13:21.375Z,1.80
2017-07-09T20:15:50.676Z,1.83
2017-07-09T20:18:20.184Z,1.70
2017-07-09T20:20:49.572Z,3.17
2017-07-09T20:23:18.946Z,2.20
2017-07-09T20:25:48.109Z,1.77
2017-07-09T20:28:17.588Z,2.10
2017-07-09T20:30:46.497Z,1.60
2017-07-09T20:33:17.234Z,1.93
2017-07-09T20:35:46.529Z,2.07
2017-07-09T20:38:15.963Z,1.70
2017-07-09T20:40:45.466Z,2.40
2017-07-09T20:43:14.999Z,1.90
2017-07-09T20:45:44.671Z,2.67
2017-07-09T20:48:13.491Z,1.60
2017-07-09T20:50:42.676Z,1.97
2017-07-09T20:53:11.968Z,1.67
2017-07-09T20:55:41.243Z,1.80
2017-07-09T20:58:10.436Z,3.70
2017-07-09T21:00:39.688Z,1.63
2017-07-09T21:03:08.920Z,2.90
2017-07-09T21:05:38.291Z,1.30
2017-07-09T21:08:08.464Z,1.40
2017-07-09T21:10:37.983Z,1.90
2017-07-09T21:13:07.093Z,2.70
2017-07-09T21:15:36.667Z,1.47
2017-07-09T21:18:05.912Z,1.60
2017-07-09T21:20:35.106Z,2.07
2017-07-09T21:23:04.396Z,1.43
2017-07-09T21:25:33.764Z,4.50
2017-07-09T21:28:03.054Z,3.97
2017-07-09T21:30:32.562Z,1.60
2017-07-09T21:33:01.797Z,1.60
2017-07-09T21:35:31.706Z,1.93
2017-07-09T21:38:01.040Z,1.90
2017-07-09T21:40:30.278Z,1.67
2017-07-09T21:42:59.383Z,1.63
2017-07-09T21:45:28.679Z,1.53
2017-07-09T21:47:57.926Z,1.50
2017-07-09T21:50:27.091Z,1.30
2017-07-09T21:52:56.731Z,1.97
2017-07-09T21:55:26.435Z,1.50
2017-07-09T21:57:55.822Z,1.43
2017-07-09T22:00:25.201Z,1.60
2017-07-09T22:02:54.576Z,1.40
2017-07-09T22:05:23.904Z,2.50
2017-07-09T22:07:53.542Z,2.27
2017-07-09T22:10:23.044Z,4.43
2017-07-09T22:12:52.341Z,3.00
2017-07-09T22:15:21.611Z,2.53
2017-07-09T22:17:51.036Z,1.73
2017-07-09T22:20:20.339Z,1.50
2017-07-09T22:22:50.029Z,1.67
2017-07-09T22:25:19.500Z,2.03
2017-07-09T22:27:48.971Z,1.80
2017-07-09T22:30:18.589Z,2.17
2017-07-09T22:32:47.979Z,1.70
2017-07-09T22:35:17.178Z,3.90
2017-07-09T22:37:47.980Z,1.77
2017-07-09T22:40:17.560Z,2.90
2017-07-09T22:42:47.890Z,1.50
2017-07-09T22:45:17.611Z,1.80
2017-07-09T22:47:47.108Z,2.83
2017-07-09T22:50:16.416Z,1.30
2017-07-09T22:52:45.689Z,2.60
2017-07-09T22:55:15.279Z,1.20
2017-07-09T22:57:44.382Z,2.33
2017-07-09T23:00:13.830Z,3.80
2017-07-09T23:02:43.057Z,1.60
2017-07-09T23:05:12.488Z,1.97
2017-07-09T23:07:41.737Z,1.47
2017-07-09T23:10:11.057Z,1.70
2017-07-09T23:12:40.477Z,2.37
2017-07-09T23:15:09.909Z,4.23
2017-07-09T23:17:40.136Z,2.77
2017-07-09T23:20:10.410Z,1.40
2017-07-09T23:22:39.497Z,1.60
2017-07-09T23:25:08.803Z,3.07
2017-07-09T23:27:38.056Z,1.60
2017-07-09T23:30:07.245Z,1.47
2017-07-09T23:32:36.473Z,3.40
2017-07-09T23:35:05.801Z,2.23
2017-07-09T23:37:35.107Z,1.60
2017-07-09T23:40:05.174Z,1.47
2017-07-09T23:42:34.592Z,1.70
2017-07-09T23:45:04.015Z,2.40
2017-07-09T23:47:33.109Z,1.73
2017-07-09T23:50:02.298Z,2.17
2017-07-09T23:52:31.723Z,1.80
2017-07-09T23:55:01.099Z,1.50
2017-07-09T23:57:30.493Z,2.80
